sensor_id;sensor_type;location;lat;lon;timestamp;P1;durP1;ratioP1;P2;durP2;ratioP2
61085;SDS011;46967;48.876;2.136;2023-06-04T00:00:31;5.45;;;2.25;;
61085;SDS011;46967;48.876;2.136;2023-06-04T00:02:57;6.68;;;2.10;;
61085;SDS011;46967;48.876;2.136;2023-06-04T00:05:22;6.85;;;2.80;;
61085;SDS011;46967;48.876;2.136;2023-06-04T00:07:50;6.47;;;2.17;;
61085;SDS011;46967;48.876;2.136;2023-06-04T00:10:16;5.55;;;2.10;;
61085;SDS011;46967;48.876;2.136;2023-06-04T00:12:42;6.95;;;2.25;;
61085;SDS011;46967;48.876;2.136;2023-06-04T00:15:07;5.55;;;2.05;;
61085;SDS011;46967;48.876;2.136;2023-06-04T00:17:33;9.18;;;2.15;;
61085;SDS011;46967;48.876;2.136;2023-06-04T00:19:58;3.13;;;1.85;;
61085;SDS011;46967;48.876;2.136;2023-06-04T00:22:24;6.15;;;2.17;;
61085;SDS011;46967;48.876;2.136;2023-06-04T00:24:49;3.70;;;1.92;;
61085;SDS011;46967;48.876;2.136;2023-06-04T00:27:15;6.65;;;1.92;;
61085;SDS011;46967;48.876;2.136;2023-06-04T00:29:40;4.40;;;1.90;;
61085;SDS011;46967;48.876;2.136;2023-06-04T00:32:06;7.03;;;1.70;;
61085;SDS011;46967;48.876;2.136;2023-06-04T00:34:31;3.80;;;1.85;;
61085;SDS011;46967;48.876;2.136;2023-06-04T00:36:57;5.53;;;2.13;;
61085;SDS011;46967;48.876;2.136;2023-06-04T00:39:22;6.32;;;2.38;;
61085;SDS011;46967;48.876;2.136;2023-06-04T00:41:47;3.33;;;2.05;;
61085;SDS011;46967;48.876;2.136;2023-06-04T00:44:13;3.70;;;2.05;;
61085;SDS011;46967;48.876;2.136;2023-06-04T00:46:38;5.50;;;2.13;;
61085;SDS011;46967;48.876;2.136;2023-06-04T00:49:04;5.75;;;1.75;;
61085;SDS011;46967;48.876;2.136;2023-06-04T00:51:31;4.28;;;1.70;;
61085;SDS011;46967;48.876;2.136;2023-06-04T00:53:57;6.50;;;1.80;;
61085;SDS011;46967;48.876;2.136;2023-06-04T00:56:23;3.85;;;1.85;;
61085;SDS011;46967;48.876;2.136;2023-06-04T00:58:48;5.55;;;1.70;;
61085;SDS011;46967;48.876;2.136;2023-06-04T01:01:31;3.10;;;1.63;;
61085;SDS011;46967;48.876;2.136;2023-06-04T01:03:59;8.90;;;1.95;;
61085;SDS011;46967;48.876;2.136;2023-06-04T01:06:28;4.90;;;1.70;;
61085;SDS011;46967;48.876;2.136;2023-06-04T01:09:04;2.67;;;1.60;;
61085;SDS011;46967;48.876;2.136;2023-06-04T01:11:34;2.72;;;1.55;;
61085;SDS011;46967;48.876;2.136;2023-06-04T01:14:01;4.65;;;1.80;;
61085;SDS011;46967;48.876;2.136;2023-06-04T01:16:55;3.40;;;1.55;;
61085;SDS011;46967;48.876;2.136;2023-06-04T01:21:56;2.55;;;1.65;;
61085;SDS011;46967;48.876;2.136;2023-06-04T01:24:27;5.55;;;2.20;;
61085;SDS011;46967;48.876;2.136;2023-06-04T01:26:53;3.83;;;1.98;;
61085;SDS011;46967;48.876;2.136;2023-06-04T01:29:21;5.35;;;2.00;;
61085;SDS011;46967;48.876;2.136;2023-06-04T01:31:48;5.68;;;2.33;;
61085;SDS011;46967;48.876;2.136;2023-06-04T01:34:17;4.50;;;1.90;;
61085;SDS011;46967;48.876;2.136;2023-06-04T01:36:42;5.10;;;2.17;;
61085;SDS011;46967;48.876;2.136;2023-06-04T01:39:07;4.47;;;1.92;;
61085;SDS011;46967;48.876;2.136;2023-06-04T01:41:33;5.50;;;2.83;;
61085;SDS011;46967;48.876;2.136;2023-06-04T01:43:58;5.05;;;1.88;;
61085;SDS011;46967;48.876;2.136;2023-06-04T01:46:23;5.88;;;2.30;;
61085;SDS011;46967;48.876;2.136;2023-06-04T01:48:49;6.70;;;2.40;;
61085;SDS011;46967;48.876;2.136;2023-06-04T01:51:14;4.95;;;2.15;;
61085;SDS011;46967;48.876;2.136;2023-06-04T01:53:40;4.38;;;2.10;;
61085;SDS011;46967;48.876;2.136;2023-06-04T01:56:05;4.63;;;2.00;;
61085;SDS011;46967;48.876;2.136;2023-06-04T01:58:32;5.03;;;2.00;;
61085;SDS011;46967;48.876;2.136;2023-06-04T02:00:58;5.65;;;2.17;;
61085;SDS011;46967;48.876;2.136;2023-06-04T02:03:25;6.03;;;2.10;;
61085;SDS011;46967;48.876;2.136;2023-06-04T02:05:51;4.40;;;1.75;;
61085;SDS011;46967;48.876;2.136;2023-06-04T02:08:17;7.43;;;1.83;;
61085;SDS011;46967;48.876;2.136;2023-06-04T02:10:48;5.47;;;1.73;;
61085;SDS011;46967;48.876;2.136;2023-06-04T02:13:14;3.42;;;1.65;;
61085;SDS011;46967;48.876;2.136;2023-06-04T02:15:40;5.15;;;2.03;;
61085;SDS011;46967;48.876;2.136;2023-06-04T02:18:38;4.65;;;1.85;;
61085;SDS011;46967;48.876;2.136;2023-06-04T02:20:57;4.32;;;1.90;;
61085;SDS011;46967;48.876;2.136;2023-06-04T02:23:23;5.47;;;2.00;;
61085;SDS011;46967;48.876;2.136;2023-06-04T02:25:48;2.88;;;1.70;;
61085;SDS011;46967;48.876;2.136;2023-06-04T02:28:14;3.78;;;1.50;;
61085;SDS011;46967;48.876;2.136;2023-06-04T02:30:40;4.85;;;1.63;;
61085;SDS011;46967;48.876;2.136;2023-06-04T02:33:06;3.80;;;1.70;;
61085;SDS011;46967;48.876;2.136;2023-06-04T02:35:34;6.47;;;1.85;;
61085;SDS011;46967;48.876;2.136;2023-06-04T02:38:00;5.57;;;1.52;;
61085;SDS011;46967;48.876;2.136;2023-06-04T02:40:26;2.55;;;1.50;;
61085;SDS011;46967;48.876;2.136;2023-06-04T02:42:52;3.50;;;1.60;;
61085;SDS011;46967;48.876;2.136;2023-06-04T02:45:18;7.43;;;1.67;;
61085;SDS011;46967;48.876;2.136;2023-06-04T02:47:44;4.82;;;1.50;;
61085;SDS011;46967;48.876;2.136;2023-06-04T02:50:09;4.65;;;1.52;;
61085;SDS011;46967;48.876;2.136;2023-06-04T02:52:35;5.72;;;1.45;;
61085;SDS011;46967;48.876;2.136;2023-06-04T02:55:02;4.50;;;1.60;;
61085;SDS011;46967;48.876;2.136;2023-06-04T02:57:29;5.38;;;1.40;;
61085;SDS011;46967;48.876;2.136;2023-06-04T02:59:55;4.10;;;1.85;;
61085;SDS011;46967;48.876;2.136;2023-06-04T03:02:20;3.72;;;1.48;;
61085;SDS011;46967;48.876;2.136;2023-06-04T03:04:46;3.00;;;1.50;;
61085;SDS011;46967;48.876;2.136;2023-06-04T03:07:15;2.50;;;1.58;;
61085;SDS011;46967;48.876;2.136;2023-06-04T03:09:45;3.05;;;1.50;;
61085;SDS011;46967;48.876;2.136;2023-06-04T03:12:11;2.92;;;1.67;;
61085;SDS011;46967;48.876;2.136;2023-06-04T03:14:36;5.32;;;1.38;;
61085;SDS011;46967;48.876;2.136;2023-06-04T03:17:02;2.85;;;1.33;;
61085;SDS011;46967;48.876;2.136;2023-06-04T03:19:35;4.03;;;1.30;;
61085;SDS011;46967;48.876;2.136;2023-06-04T03:22:02;2.55;;;1.58;;
61085;SDS011;46967;48.876;2.136;2023-06-04T03:24:34;2.97;;;1.70;;
61085;SDS011;46967;48.876;2.136;2023-06-04T03:27:00;5.55;;;1.77;;
61085;SDS011;46967;48.876;2.136;2023-06-04T03:29:26;4.05;;;1.70;;
61085;SDS011;46967;48.876;2.136;2023-06-04T03:31:52;2.72;;;1.40;;
61085;SDS011;46967;48.876;2.136;2023-06-04T03:34:17;7.15;;;1.67;;
61085;SDS011;46967;48.876;2.136;2023-06-04T03:36:42;5.50;;;1.65;;
61085;SDS011;46967;48.876;2.136;2023-06-04T03:39:08;3.17;;;1.52;;
61085;SDS011;46967;48.876;2.136;2023-06-04T03:41:33;2.80;;;1.20;;
61085;SDS011;46967;48.876;2.136;2023-06-04T03:43:58;2.83;;;1.40;;
61085;SDS011;46967;48.876;2.136;2023-06-04T03:46:24;1.60;;;1.23;;
61085;SDS011;46967;48.876;2.136;2023-06-04T03:48:56;2.85;;;1.33;;
61085;SDS011;46967;48.876;2.136;2023-06-04T03:51:22;5.38;;;1.52;;
61085;SDS011;46967;48.876;2.136;2023-06-04T03:53:47;2.10;;;1.27;;
61085;SDS011;46967;48.876;2.136;2023-06-04T03:56:12;5.88;;;1.98;;
61085;SDS011;46967;48.876;2.136;2023-06-04T03:58:39;3.35;;;1.55;;
61085;SDS011;46967;48.876;2.136;2023-06-04T04:01:04;4.10;;;1.40;;
61085;SDS011;46967;48.876;2.136;2023-06-04T04:03:30;3.58;;;1.40;;
61085;SDS011;46967;48.876;2.136;2023-06-04T04:05:56;6.25;;;1.50;;
61085;SDS011;46967;48.876;2.136;2023-06-04T04:08:22;4.00;;;1.45;;
61085;SDS011;46967;48.876;2.136;2023-06-04T04:10:48;3.08;;;1.60;;
61085;SDS011;46967;48.876;2.136;2023-06-04T04:13:13;7.20;;;1.70;;
61085;SDS011;46967;48.876;2.136;2023-06-04T04:15:39;3.78;;;1.90;;
61085;SDS011;46967;48.876;2.136;2023-06-04T04:18:04;2.80;;;1.52;;
61085;SDS011;46967;48.876;2.136;2023-06-04T04:20:29;3.45;;;1.40;;
61085;SDS011;46967;48.876;2.136;2023-06-04T04:22:55;4.18;;;1.60;;
61085;SDS011;46967;48.876;2.136;2023-06-04T04:25:21;3.90;;;1.75;;
61085;SDS011;46967;48.876;2.136;2023-06-04T04:27:46;3.25;;;1.20;;
61085;SDS011;46967;48.876;2.136;2023-06-04T04:30:13;3.00;;;1.60;;
61085;SDS011;46967;48.876;2.136;2023-06-04T04:32:40;4.90;;;1.50;;
61085;SDS011;46967;48.876;2.136;2023-06-04T04:35:13;3.72;;;1.40;;
61085;SDS011;46967;48.876;2.136;2023-06-04T04:37:39;2.50;;;1.27;;
61085;SDS011;46967;48.876;2.136;2023-06-04T04:40:06;2.97;;;1.40;;
61085;SDS011;46967;48.876;2.136;2023-06-04T04:42:34;3.08;;;1.63;;
61085;SDS011;46967;48.876;2.136;2023-06-04T04:45:00;2.78;;;1.48;;
61085;SDS011;46967;48.876;2.136;2023-06-04T04:47:25;2.28;;;1.23;;
61085;SDS011;46967;48.876;2.136;2023-06-04T04:49:50;2.08;;;1.17;;
61085;SDS011;46967;48.876;2.136;2023-06-04T04:52:16;5.95;;;1.27;;
61085;SDS011;46967;48.876;2.136;2023-06-04T04:54:41;6.05;;;1.33;;
61085;SDS011;46967;48.876;2.136;2023-06-04T04:57:07;2.75;;;1.38;;
61085;SDS011;46967;48.876;2.136;2023-06-04T04:59:32;2.83;;;1.17;;
61085;SDS011;46967;48.876;2.136;2023-06-04T05:01:57;3.05;;;1.40;;
61085;SDS011;46967;48.876;2.136;2023-06-04T05:04:23;5.00;;;1.40;;
61085;SDS011;46967;48.876;2.136;2023-06-04T05:06:48;2.13;;;1.30;;
61085;SDS011;46967;48.876;2.136;2023-06-04T05:09:13;6.03;;;1.27;;
61085;SDS011;46967;48.876;2.136;2023-06-04T05:11:40;6.72;;;1.48;;
61085;SDS011;46967;48.876;2.136;2023-06-04T05:14:06;3.08;;;1.30;;
61085;SDS011;46967;48.876;2.136;2023-06-04T05:16:32;1.80;;;1.25;;
61085;SDS011;46967;48.876;2.136;2023-06-04T05:19:00;3.05;;;1.40;;
61085;SDS011;46967;48.876;2.136;2023-06-04T05:21:26;5.65;;;1.13;;
61085;SDS011;46967;48.876;2.136;2023-06-04T05:23:53;6.00;;;1.90;;
61085;SDS011;46967;48.876;2.136;2023-06-04T05:26:19;4.35;;;1.45;;
61085;SDS011;46967;48.876;2.136;2023-06-04T05:28:48;2.35;;;1.33;;
61085;SDS011;46967;48.876;2.136;2023-06-04T05:31:13;6.78;;;1.40;;
61085;SDS011;46967;48.876;2.136;2023-06-04T05:33:40;5.00;;;1.30;;
61085;SDS011;46967;48.876;2.136;2023-06-04T05:36:06;2.40;;;1.17;;
61085;SDS011;46967;48.876;2.136;2023-06-04T05:38:32;4.97;;;1.30;;
61085;SDS011;46967;48.876;2.136;2023-06-04T05:40:58;2.58;;;1.30;;
61085;SDS011;46967;48.876;2.136;2023-06-04T05:43:23;4.10;;;1.10;;
61085;SDS011;46967;48.876;2.136;2023-06-04T05:45:49;5.28;;;1.40;;
61085;SDS011;46967;48.876;2.136;2023-06-04T05:48:16;5.65;;;1.27;;
61085;SDS011;46967;48.876;2.136;2023-06-04T05:50:41;3.25;;;1.30;;
61085;SDS011;46967;48.876;2.136;2023-06-04T05:53:07;6.25;;;1.50;;
61085;SDS011;46967;48.876;2.136;2023-06-04T05:55:32;3.47;;;1.55;;
61085;SDS011;46967;48.876;2.136;2023-06-04T05:57:57;6.30;;;1.65;;
61085;SDS011;46967;48.876;2.136;2023-06-04T06:00:23;2.72;;;1.27;;
61085;SDS011;46967;48.876;2.136;2023-06-04T06:02:49;4.40;;;1.40;;
61085;SDS011;46967;48.876;2.136;2023-06-04T06:05:15;9.38;;;1.42;;
61085;SDS011;46967;48.876;2.136;2023-06-04T06:07:42;2.40;;;1.13;;
61085;SDS011;46967;48.876;2.136;2023-06-04T06:10:08;7.57;;;1.10;;
61085;SDS011;46967;48.876;2.136;2023-06-04T06:12:34;2.38;;;1.08;;
61085;SDS011;46967;48.876;2.136;2023-06-04T06:14:59;2.83;;;1.30;;
61085;SDS011;46967;48.876;2.136;2023-06-04T06:17:25;3.30;;;1.38;;
61085;SDS011;46967;48.876;2.136;2023-06-04T06:19:51;2.92;;;1.40;;
61085;SDS011;46967;48.876;2.136;2023-06-04T06:24:46;6.50;;;1.10;;
61085;SDS011;46967;48.876;2.136;2023-06-04T06:27:13;2.85;;;1.30;;
61085;SDS011;46967;48.876;2.136;2023-06-04T06:29:40;2.85;;;1.30;;
61085;SDS011;46967;48.876;2.136;2023-06-04T06:32:05;3.85;;;1.20;;
61085;SDS011;46967;48.876;2.136;2023-06-04T06:34:31;3.88;;;1.20;;
61085;SDS011;46967;48.876;2.136;2023-06-04T06:36:56;4.75;;;1.27;;
61085;SDS011;46967;48.876;2.136;2023-06-04T06:39:22;4.75;;;1.20;;
61085;SDS011;46967;48.876;2.136;2023-06-04T06:41:47;4.03;;;1.50;;
61085;SDS011;46967;48.876;2.136;2023-06-04T06:44:13;4.32;;;1.15;;
61085;SDS011;46967;48.876;2.136;2023-06-04T06:46:38;5.80;;;1.10;;
61085;SDS011;46967;48.876;2.136;2023-06-04T06:49:03;4.05;;;1.33;;
61085;SDS011;46967;48.876;2.136;2023-06-04T06:51:29;5.57;;;2.03;;
61085;SDS011;46967;48.876;2.136;2023-06-04T06:53:55;3.33;;;1.00;;
61085;SDS011;46967;48.876;2.136;2023-06-04T06:56:20;4.45;;;1.40;;
61085;SDS011;46967;48.876;2.136;2023-06-04T06:58:46;2.47;;;1.50;;
61085;SDS011;46967;48.876;2.136;2023-06-04T07:01:11;5.13;;;1.52;;
61085;SDS011;46967;48.876;2.136;2023-06-04T07:03:37;5.50;;;1.48;;
61085;SDS011;46967;48.876;2.136;2023-06-04T07:06:04;3.50;;;1.17;;
61085;SDS011;46967;48.876;2.136;2023-06-04T07:08:33;2.65;;;1.50;;
61085;SDS011;46967;48.876;2.136;2023-06-04T07:10:59;2.45;;;1.27;;
61085;SDS011;46967;48.876;2.136;2023-06-04T07:13:26;3.72;;;1.23;;
61085;SDS011;46967;48.876;2.136;2023-06-04T07:15:51;2.75;;;1.15;;
61085;SDS011;46967;48.876;2.136;2023-06-04T07:18:17;1.63;;;1.27;;
61085;SDS011;46967;48.876;2.136;2023-06-04T07:20:42;4.57;;;1.05;;
61085;SDS011;46967;48.876;2.136;2023-06-04T07:23:07;5.40;;;1.48;;
61085;SDS011;46967;48.876;2.136;2023-06-04T07:25:33;5.65;;;1.35;;
61085;SDS011;46967;48.876;2.136;2023-06-04T07:27:58;4.25;;;1.42;;
61085;SDS011;46967;48.876;2.136;2023-06-04T07:30:24;2.75;;;1.00;;
61085;SDS011;46967;48.876;2.136;2023-06-04T07:32:50;3.17;;;1.30;;
61085;SDS011;46967;48.876;2.136;2023-06-04T07:35:15;2.13;;;1.15;;
61085;SDS011;46967;48.876;2.136;2023-06-04T07:37:41;8.38;;;1.35;;
61085;SDS011;46967;48.876;2.136;2023-06-04T07:40:10;3.20;;;1.23;;
61085;SDS011;46967;48.876;2.136;2023-06-04T07:42:36;2.92;;;1.10;;
61085;SDS011;46967;48.876;2.136;2023-06-04T07:45:02;2.45;;;1.20;;
61085;SDS011;46967;48.876;2.136;2023-06-04T07:47:28;4.75;;;1.42;;
61085;SDS011;46967;48.876;2.136;2023-06-04T07:49:53;4.45;;;1.38;;
61085;SDS011;46967;48.876;2.136;2023-06-04T07:52:19;7.60;;;1.30;;
61085;SDS011;46967;48.876;2.136;2023-06-04T07:54:44;2.20;;;1.40;;
61085;SDS011;46967;48.876;2.136;2023-06-04T07:57:09;3.40;;;1.40;;
61085;SDS011;46967;48.876;2.136;2023-06-04T07:59:35;3.92;;;1.30;;
61085;SDS011;46967;48.876;2.136;2023-06-04T08:02:00;2.70;;;1.35;;
61085;SDS011;46967;48.876;2.136;2023-06-04T08:04:26;2.85;;;1.30;;
61085;SDS011;46967;48.876;2.136;2023-06-04T08:06:51;4.88;;;1.20;;
61085;SDS011;46967;48.876;2.136;2023-06-04T08:09:17;3.42;;;1.30;;
61085;SDS011;46967;48.876;2.136;2023-06-04T08:11:43;3.13;;;1.15;;
61085;SDS011;46967;48.876;2.136;2023-06-04T08:14:13;4.30;;;1.50;;
61085;SDS011;46967;48.876;2.136;2023-06-04T08:16:39;2.88;;;1.45;;
61085;SDS011;46967;48.876;2.136;2023-06-04T08:19:05;4.68;;;1.30;;
61085;SDS011;46967;48.876;2.136;2023-06-04T08:21:32;6.85;;;1.30;;
61085;SDS011;46967;48.876;2.136;2023-06-04T08:23:58;2.20;;;1.30;;
61085;SDS011;46967;48.876;2.136;2023-06-04T08:26:24;10.38;;;1.30;;
61085;SDS011;46967;48.876;2.136;2023-06-04T08:28:52;4.78;;;1.40;;
61085;SDS011;46967;48.876;2.136;2023-06-04T08:31:17;6.88;;;1.33;;
61085;SDS011;46967;48.876;2.136;2023-06-04T08:33:45;5.30;;;1.38;;
61085;SDS011;46967;48.876;2.136;2023-06-04T08:36:11;3.97;;;1.67;;
61085;SDS011;46967;48.876;2.136;2023-06-04T08:38:36;2.70;;;1.50;;
61085;SDS011;46967;48.876;2.136;2023-06-04T08:41:23;5.63;;;1.40;;
61085;SDS011;46967;48.876;2.136;2023-06-04T08:43:55;3.35;;;1.20;;
61085;SDS011;46967;48.876;2.136;2023-06-04T08:46:21;3.05;;;1.10;;
61085;SDS011;46967;48.876;2.136;2023-06-04T08:48:47;3.83;;;1.33;;
61085;SDS011;46967;48.876;2.136;2023-06-04T08:51:14;4.85;;;1.52;;
61085;SDS011;46967;48.876;2.136;2023-06-04T08:53:40;6.15;;;1.58;;
61085;SDS011;46967;48.876;2.136;2023-06-04T08:56:07;2.78;;;1.30;;
61085;SDS011;46967;48.876;2.136;2023-06-04T08:58:33;3.40;;;1.40;;
61085;SDS011;46967;48.876;2.136;2023-06-04T09:01:02;3.72;;;1.63;;
61085;SDS011;46967;48.876;2.136;2023-06-04T09:03:27;5.25;;;1.30;;
61085;SDS011;46967;48.876;2.136;2023-06-04T09:05:56;4.55;;;1.20;;
61085;SDS011;46967;48.876;2.136;2023-06-04T09:08:22;6.97;;;1.20;;
61085;SDS011;46967;48.876;2.136;2023-06-04T09:10:49;1.80;;;1.08;;
61085;SDS011;46967;48.876;2.136;2023-06-04T09:13:18;5.43;;;1.50;;
61085;SDS011;46967;48.876;2.136;2023-06-04T09:15:44;5.53;;;1.30;;
61085;SDS011;46967;48.876;2.136;2023-06-04T09:18:11;3.00;;;1.38;;
61085;SDS011;46967;48.876;2.136;2023-06-04T09:20:37;3.97;;;1.48;;
61085;SDS011;46967;48.876;2.136;2023-06-04T09:23:11;2.25;;;1.20;;
61085;SDS011;46967;48.876;2.136;2023-06-04T09:25:37;1.98;;;1.33;;
61085;SDS011;46967;48.876;2.136;2023-06-04T09:28:07;2.22;;;1.30;;
61085;SDS011;46967;48.876;2.136;2023-06-04T09:30:32;2.72;;;1.23;;
61085;SDS011;46967;48.876;2.136;2023-06-04T09:33:10;8.40;;;1.45;;
61085;SDS011;46967;48.876;2.136;2023-06-04T09:35:37;4.63;;;1.20;;
61085;SDS011;46967;48.876;2.136;2023-06-04T09:38:04;3.15;;;1.27;;
61085;SDS011;46967;48.876;2.136;2023-06-04T09:40:36;3.00;;;1.13;;
61085;SDS011;46967;48.876;2.136;2023-06-04T09:43:02;3.25;;;1.33;;
61085;SDS011;46967;48.876;2.136;2023-06-04T09:45:28;4.88;;;1.20;;
61085;SDS011;46967;48.876;2.136;2023-06-04T09:47:55;3.90;;;1.60;;
61085;SDS011;46967;48.876;2.136;2023-06-04T09:50:26;3.10;;;1.40;;
61085;SDS011;46967;48.876;2.136;2023-06-04T09:52:56;1.45;;;1.02;;
61085;SDS011;46967;48.876;2.136;2023-06-04T09:55:22;5.60;;;1.55;;
61085;SDS011;46967;48.876;2.136;2023-06-04T09:57:48;3.30;;;1.40;;
61085;SDS011;46967;48.876;2.136;2023-06-04T10:00:18;4.47;;;1.35;;
61085;SDS011;46967;48.876;2.136;2023-06-04T10:02:45;2.80;;;1.20;;
61085;SDS011;46967;48.876;2.136;2023-06-04T10:05:12;8.07;;;1.30;;
61085;SDS011;46967;48.876;2.136;2023-06-04T10:07:44;2.03;;;1.10;;
61085;SDS011;46967;48.876;2.136;2023-06-04T10:10:11;3.95;;;1.20;;
61085;SDS011;46967;48.876;2.136;2023-06-04T10:12:43;4.43;;;1.20;;
61085;SDS011;46967;48.876;2.136;2023-06-04T10:15:13;2.47;;;1.20;;
61085;SDS011;46967;48.876;2.136;2023-06-04T10:17:39;5.47;;;1.33;;
61085;SDS011;46967;48.876;2.136;2023-06-04T10:20:09;6.85;;;1.50;;
61085;SDS011;46967;48.876;2.136;2023-06-04T10:22:35;3.20;;;1.00;;
61085;SDS011;46967;48.876;2.136;2023-06-04T10:25:01;1.10;;;1.00;;
61085;SDS011;46967;48.876;2.136;2023-06-04T10:27:29;3.58;;;1.35;;
61085;SDS011;46967;48.876;2.136;2023-06-04T10:29:56;8.48;;;1.35;;
61085;SDS011;46967;48.876;2.136;2023-06-04T10:32:23;3.10;;;1.40;;
61085;SDS011;46967;48.876;2.136;2023-06-04T10:34:52;3.03;;;1.10;;
61085;SDS011;46967;48.876;2.136;2023-06-04T10:37:21;6.03;;;1.40;;
61085;SDS011;46967;48.876;2.136;2023-06-04T10:39:51;2.60;;;1.23;;
61085;SDS011;46967;48.876;2.136;2023-06-04T10:42:18;3.13;;;1.27;;
61085;SDS011;46967;48.876;2.136;2023-06-04T10:44:47;3.35;;;1.25;;
61085;SDS011;46967;48.876;2.136;2023-06-04T10:50:09;2.03;;;1.10;;
61085;SDS011;46967;48.876;2.136;2023-06-04T10:52:36;3.42;;;1.40;;
61085;SDS011;46967;48.876;2.136;2023-06-04T10:55:03;4.68;;;1.83;;
61085;SDS011;46967;48.876;2.136;2023-06-04T10:57:30;3.88;;;1.50;;
61085;SDS011;46967;48.876;2.136;2023-06-04T10:59:56;2.97;;;1.60;;
61085;SDS011;46967;48.876;2.136;2023-06-04T11:02:24;5.28;;;1.35;;
61085;SDS011;46967;48.876;2.136;2023-06-04T11:07:26;3.97;;;1.40;;
61085;SDS011;46967;48.876;2.136;2023-06-04T11:09:52;5.00;;;1.50;;
61085;SDS011;46967;48.876;2.136;2023-06-04T11:12:18;3.83;;;1.20;;
61085;SDS011;46967;48.876;2.136;2023-06-04T11:14:56;7.50;;;1.60;;
61085;SDS011;46967;48.876;2.136;2023-06-04T11:17:21;4.07;;;1.70;;
61085;SDS011;46967;48.876;2.136;2023-06-04T11:19:47;2.40;;;1.30;;
61085;SDS011;46967;48.876;2.136;2023-06-04T11:22:12;3.45;;;1.58;;
61085;SDS011;46967;48.876;2.136;2023-06-04T11:24:38;2.55;;;1.40;;
61085;SDS011;46967;48.876;2.136;2023-06-04T11:27:03;4.63;;;2.15;;
61085;SDS011;46967;48.876;2.136;2023-06-04T11:29:29;5.03;;;1.90;;
61085;SDS011;46967;48.876;2.136;2023-06-04T11:31:54;8.57;;;1.75;;
61085;SDS011;46967;48.876;2.136;2023-06-04T11:34:26;5.25;;;1.70;;
61085;SDS011;46967;48.876;2.136;2023-06-04T11:36:53;5.82;;;1.95;;
61085;SDS011;46967;48.876;2.136;2023-06-04T11:39:19;5.47;;;1.30;;
61085;SDS011;46967;48.876;2.136;2023-06-04T11:41:46;5.70;;;1.88;;
61085;SDS011;46967;48.876;2.136;2023-06-04T11:44:12;4.72;;;1.60;;
61085;SDS011;46967;48.876;2.136;2023-06-04T11:46:41;3.55;;;1.67;;
61085;SDS011;46967;48.876;2.136;2023-06-04T11:49:11;1.73;;;1.27;;
61085;SDS011;46967;48.876;2.136;2023-06-04T11:51:38;2.05;;;1.40;;
61085;SDS011;46967;48.876;2.136;2023-06-04T11:54:03;2.83;;;1.45;;
61085;SDS011;46967;48.876;2.136;2023-06-04T11:56:29;2.58;;;1.52;;
61085;SDS011;46967;48.876;2.136;2023-06-04T11:58:54;5.53;;;1.70;;
61085;SDS011;46967;48.876;2.136;2023-06-04T12:01:20;4.82;;;1.45;;
61085;SDS011;46967;48.876;2.136;2023-06-04T12:03:46;3.45;;;1.40;;
61085;SDS011;46967;48.876;2.136;2023-06-04T12:06:15;3.35;;;1.55;;
61085;SDS011;46967;48.876;2.136;2023-06-04T12:08:55;2.67;;;1.40;;
61085;SDS011;46967;48.876;2.136;2023-06-04T12:13:57;2.58;;;1.67;;
61085;SDS011;46967;48.876;2.136;2023-06-04T12:16:24;3.65;;;1.50;;
61085;SDS011;46967;48.876;2.136;2023-06-04T12:18:51;2.80;;;1.20;;
61085;SDS011;46967;48.876;2.136;2023-06-04T12:21:23;2.75;;;1.20;;
61085;SDS011;46967;48.876;2.136;2023-06-04T12:24:14;2.92;;;1.48;;
61085;SDS011;46967;48.876;2.136;2023-06-04T12:26:39;5.00;;;1.50;;
61085;SDS011;46967;48.876;2.136;2023-06-04T12:29:13;1.83;;;1.13;;
61085;SDS011;46967;48.876;2.136;2023-06-04T12:31:40;6.10;;;1.50;;
61085;SDS011;46967;48.876;2.136;2023-06-04T12:34:06;4.38;;;1.50;;
61085;SDS011;46967;48.876;2.136;2023-06-04T12:36:32;2.38;;;1.63;;
61085;SDS011;46967;48.876;2.136;2023-06-04T12:39:01;2.25;;;1.20;;
61085;SDS011;46967;48.876;2.136;2023-06-04T12:41:28;4.10;;;1.30;;
61085;SDS011;46967;48.876;2.136;2023-06-04T12:43:54;3.10;;;1.40;;
61085;SDS011;46967;48.876;2.136;2023-06-04T12:46:20;3.80;;;1.35;;
61085;SDS011;46967;48.876;2.136;2023-06-04T12:48:47;2.95;;;1.42;;
61085;SDS011;46967;48.876;2.136;2023-06-04T12:51:13;3.95;;;1.65;;
61085;SDS011;46967;48.876;2.136;2023-06-04T12:53:39;3.30;;;1.30;;
61085;SDS011;46967;48.876;2.136;2023-06-04T12:56:05;7.45;;;1.17;;
61085;SDS011;46967;48.876;2.136;2023-06-04T12:58:30;3.38;;;1.30;;
61085;SDS011;46967;48.876;2.136;2023-06-04T13:00:56;2.15;;;1.00;;
61085;SDS011;46967;48.876;2.136;2023-06-04T13:03:21;4.20;;;1.48;;
61085;SDS011;46967;48.876;2.136;2023-06-04T13:05:47;3.45;;;1.35;;
61085;SDS011;46967;48.876;2.136;2023-06-04T13:08:12;2.47;;;1.33;;
61085;SDS011;46967;48.876;2.136;2023-06-04T13:10:37;4.80;;;1.20;;
61085;SDS011;46967;48.876;2.136;2023-06-04T13:13:03;1.92;;;1.23;;
61085;SDS011;46967;48.876;2.136;2023-06-04T13:15:28;1.90;;;1.30;;
61085;SDS011;46967;48.876;2.136;2023-06-04T13:17:54;2.33;;;1.40;;
61085;SDS011;46967;48.876;2.136;2023-06-04T13:20:19;2.58;;;1.33;;
61085;SDS011;46967;48.876;2.136;2023-06-04T13:22:45;3.13;;;1.42;;
61085;SDS011;46967;48.876;2.136;2023-06-04T13:25:10;1.55;;;1.20;;
61085;SDS011;46967;48.876;2.136;2023-06-04T13:27:36;3.38;;;1.40;;
61085;SDS011;46967;48.876;2.136;2023-06-04T13:30:01;2.28;;;1.05;;
61085;SDS011;46967;48.876;2.136;2023-06-04T13:32:26;2.83;;;1.50;;
61085;SDS011;46967;48.876;2.136;2023-06-04T13:34:52;2.17;;;1.08;;
61085;SDS011;46967;48.876;2.136;2023-06-04T13:37:17;2.33;;;1.02;;
61085;SDS011;46967;48.876;2.136;2023-06-04T13:39:42;2.65;;;1.35;;
61085;SDS011;46967;48.876;2.136;2023-06-04T13:42:08;4.32;;;1.48;;
61085;SDS011;46967;48.876;2.136;2023-06-04T13:44:33;3.10;;;1.10;;
61085;SDS011;46967;48.876;2.136;2023-06-04T13:46:59;5.35;;;1.25;;
61085;SDS011;46967;48.876;2.136;2023-06-04T13:49:24;1.80;;;1.20;;
61085;SDS011;46967;48.876;2.136;2023-06-04T13:51:50;4.93;;;1.30;;
61085;SDS011;46967;48.876;2.136;2023-06-04T13:54:15;2.67;;;1.20;;
61085;SDS011;46967;48.876;2.136;2023-06-04T13:56:44;2.83;;;1.25;;
61085;SDS011;46967;48.876;2.136;2023-06-04T13:59:09;2.72;;;1.38;;
61085;SDS011;46967;48.876;2.136;2023-06-04T14:01:35;3.13;;;1.48;;
61085;SDS011;46967;48.876;2.136;2023-06-04T14:04:00;2.10;;;1.40;;
61085;SDS011;46967;48.876;2.136;2023-06-04T14:06:25;3.20;;;1.10;;
61085;SDS011;46967;48.876;2.136;2023-06-04T14:08:51;2.42;;;1.30;;
61085;SDS011;46967;48.876;2.136;2023-06-04T14:11:16;4.43;;;1.13;;
61085;SDS011;46967;48.876;2.136;2023-06-04T14:13:41;2.50;;;1.30;;
61085;SDS011;46967;48.876;2.136;2023-06-04T14:16:09;2.20;;;1.10;;
61085;SDS011;46967;48.876;2.136;2023-06-04T14:18:35;2.33;;;1.20;;
61085;SDS011;46967;48.876;2.136;2023-06-04T14:21:00;2.00;;;1.00;;
61085;SDS011;46967;48.876;2.136;2023-06-04T14:23:26;1.85;;;1.20;;
61085;SDS011;46967;48.876;2.136;2023-06-04T14:25:51;2.10;;;1.50;;
61085;SDS011;46967;48.876;2.136;2023-06-04T14:28:16;4.20;;;1.40;;
61085;SDS011;46967;48.876;2.136;2023-06-04T14:30:43;4.35;;;1.08;;
61085;SDS011;46967;48.876;2.136;2023-06-04T14:33:08;2.72;;;1.20;;
61085;SDS011;46967;48.876;2.136;2023-06-04T14:35:33;4.07;;;1.08;;
61085;SDS011;46967;48.876;2.136;2023-06-04T14:37:59;2.33;;;1.20;;
61085;SDS011;46967;48.876;2.136;2023-06-04T14:40:24;2.92;;;1.17;;
61085;SDS011;46967;48.876;2.136;2023-06-04T14:42:50;2.70;;;1.20;;
61085;SDS011;46967;48.876;2.136;2023-06-04T14:45:15;2.45;;;1.20;;
61085;SDS011;46967;48.876;2.136;2023-06-04T14:47:40;6.25;;;1.10;;
61085;SDS011;46967;48.876;2.136;2023-06-04T14:50:06;3.50;;;1.20;;
61085;SDS011;46967;48.876;2.136;2023-06-04T14:52:31;4.00;;;1.25;;
61085;SDS011;46967;48.876;2.136;2023-06-04T14:54:57;4.28;;;1.27;;
61085;SDS011;46967;48.876;2.136;2023-06-04T14:57:22;3.03;;;1.30;;